Skip Navigation Links
NOAA logo - Click to go to the NOAA homepage
NOAA's National Weather Service
Alaska Aviation Weather Unit
  NWS logo - Click to go to the NWS homepage
Left Navbar Graphic     12 AKDT = 20 GMT

   
NOAA is celebrating 200 years of science, service, and stewardship. Visit the NOAA 200th celebration Web site to learn more.
USA.gov is the U.S. Government's official Web portal to all Federal, state and local government Web resources and services.
Facebook
NWS on Facebook

Important Change Regarding the AAWU Web Presence

 

Over the last several months, the AAWU has been working to navigate its webpages to a nationally supported server. Security, as well as other needs, have necessitated the change.  We have been given an extension for the site changeover while we diligently work at addressing feedback received. As of July 14, 2017, aawu.arh.noaa.gov will be discontinued. The new AAWU web address is weather.gov/aawu. It is now live and will run in-parallel with the old site until it is discontinued on July 14, 2017. Please continue to send any feedback or questions regarding the new webpages to nws.ar.aawu.webauthors@noaa.gov.  Thank you for your patience during this time of transition.
AAWU Home :: Display TAF Add Bookmark
PABA 251452Z AUTO 30015KT 10SM OVC003 03/02 A2998=

PABA 251534Z AUTO 27010KT 10SM OVC005 03/02 A2999 RMK AO2 TSNO=

PABA 251552Z AUTO 26011KT 10SM OVC005 03/03 A3000=

PABA 251652Z AUTO 26007KT 10SM BKN007 OVC031 04/02 A3001=

SPECI PABA 251726Z AUTO 27007KT 10SM SCT007 OVC031 04/02 A3001 RMK AO2
     TSNO=

SPECI PABA 251742Z AUTO 28007KT 10SM FEW007 OVC029 04/03 A3001 RMK
      AO2 TSNO=

PABA 251752Z AUTO 28007KT 10SM FEW007 OVC029 04/03 A3001=

PABA 251852Z AUTO 28004KT 10SM OVC025 06/03 A3001=

SPECI PABA 251912Z AUTO 25003KT 10SM SCT025 07/03 A3001 RMK AO2 TSNO=

SPECI PABA 251917Z AUTO 00000KT 10SM BKN025 07/03 A3001 RMK AO2 TSNO=

PABA 251952Z AUTO 35004KT 10SM SCT027 06/04 A3002=


NOAA's National Weather Service
Alaska Aviation Weather Unit
6930 Sand Lake Road
Anchorage, AK 99502-1845
Disclaimer
Credits
Glossary
Privacy Policy
About Us
Career Opportunities
Contact AAWU Internet Services Site last modified: April, 17th 2012